Aérodrome :
LOGIN :

S'inscrire | Disclaimer

   EN    FR    IT 

 










Légende :    VFR   VFR Marginal   IFR   IFR Intensif   IFR Très Intensif
Visi : 
Plafond : 
>= 8 km
>= 3000ft
5 à 8 km
1000 à 3000 ft
1500m à 5 km
500 à 1000 ft
800 à 1500m
200 à 500 ft
< 800m
< 200 ft
Symboles :   Orages  Brouillard  Fortes neiges  Fortes précipitations  Vent > 20 kt
SIGMETs :   Divers  Orages  Givrage  Turbulence  Onde Orograph.  Cendres Volcan.







- Altitude de l'aérodrome : 376 ft


LHKE - Kecskemét

DERNIER METAR :
  • 240615Z 31004KT 9999 SCT020 BKN040 OVC083 13/12 Q1013 NOSIG RMK BLU

METARs EXPIRÉS :
  • 240545Z 31004KT 9999 SCT020 BKN040 OVC083 13/12 Q1013 NOSIG RMK BLU
  • 240515Z 32004KT 8000 -DZ BKN040 OVC083 13/12 Q1012 TEMPO NSW RMK BLU
  • 240445Z 33004KT 8000 NSC 12/12 Q1012 TEMPO -RA RMK BLU
  • 240415Z 32004KT CAVOK 12/12 Q1012 RERA TEMPO -RA RMK BLU
  • 240345Z 32004KT 8000 -RA SCT053 OVC083 12/11 Q1012 TEMPO 5000 RA BR RMK BLU

TAF TAF LHKE
Valide du 24 à 06h jusqu'au 24 à 15h UTC


240515Z 2406/2415 35004KT 9999 SCT030 BKN080
TEMPO 2406/2409 8000 -RA -SHRA SCT005 BKN030 BKN080
BECMG 2409/2410 BKN025
PROB40
TEMPO 2410/2415 VRB16G28KT 6000 SHRA TSRA SCT020CB BKN030
Pas de NOTAMs connus pour ce terrain.



MET'MAP, la Météo Aéronautique d'un coup d'oeil ! - Copyright ORBIFLY Décembre 2007 - Disclaimer

ORBIFLY MET'MAP TEAM :

Programmation & Développement : Alexandra Zaïnal
Conception & Développement : Baudouin d'Aumeries
Co-Programmation & Développement : Marc-Olivier Méhu
Soutien technique & logistique : Manuel Goepfert

Contact : metmap@orbifly.com




SOURCES & CREDITS :

   NOAA